Airfield :
LOGIN :

Register | Disclaimer

   EN    FR    IT 

 










Legend :    VFR   Marginal VFR   IFR   Intensive IFR   Very Intensive IFR
Visi :
Ceiling :
>= 8 km
>= 3000ft
5 to 8 km
1000 to 3000 ft
1500m to 5 km
500 to 1000 ft
800 to 1500m
200 to 500 ft
< 800m
< 200 ft
Symbols :   Thunderstorms  Fog  Heavy snow  Heavy precipitations  Wind > 20 kt
SIGMETs :     Misc.  Thunderstorms  Icing  Turbulence  Mountain Waves  Volcanic Ashes






- Airport Elevation : 778 ft
- IATA code : BRQ


LKTB - Brno-Turany

CURRENT METAR :
  • 210930Z VRB02KT CAVOK 27/13 Q1010 NOSIG

EXPIRED METARs :
  • 210900Z VRB03KT CAVOK 27/14 Q1010 NOSIG
  • 210830Z VRB03KT 9999 FEW047 26/14 Q1010 NOSIG
  • 210800Z VRB02KT 9999 FEW039 25/15 Q1010 NOSIG
  • 210730Z VRB01KT CAVOK 24/15 Q1010 NOSIG
  • 210700Z VRB02KT CAVOK 23/15 Q1010 NOSIG
  • 210630Z 32004KT 280V010 CAVOK 21/14 Q1010 NOSIG
  • 210600Z 31004KT 280V340 CAVOK 20/14 Q1010 NOSIG
  • 210530Z 30005KT CAVOK 19/14 Q1010 NOSIG
  • 210500Z 32004KT 300V360 CAVOK 17/14 Q1010 NOSIG
  • 210430Z 32004KT 290V350 CAVOK 16/13 Q1010 NOSIG

TAF TAF LKTB
Valid from the 21 at 06:00 until the 22 at 06:00 UTC


210500Z 2106/2206 12004KT CAVOK
BECMG 2117/2119 06006KT
BECMG 2200/2202 VRB02KT



MET'MAP, your aeronautical weather chart ! - Copyright ORBIFLY December 2007 - Disclaimer

ORBIFLY MET'MAP TEAM :

Programming & Development : Alexandra Zaïnal
Original concept : Baudouin d'Aumeries
Technical & hardware support : Manuel Goepfert
Assistance : Marc-Olivier Méhu




SOURCES & CREDITS :

   NOAA